createdAt,value
2022-10-06T00:00:39.103Z,1.33
2022-10-06T00:03:05.804Z,1.52
2022-10-06T00:05:32.750Z,1.38
2022-10-06T00:08:00.428Z,1.80
2022-10-06T00:10:27.924Z,1.67
2022-10-06T00:12:54.690Z,1.92
2022-10-06T00:15:24.421Z,1.67
2022-10-06T00:17:51.582Z,1.30
2022-10-06T00:20:19.203Z,1.63
2022-10-06T00:22:48.082Z,1.40
2022-10-06T00:25:18.917Z,1.20
2022-10-06T00:27:47.533Z,1.88
2022-10-06T00:30:20.899Z,2.03
2022-10-06T00:33:01.797Z,2.20
2022-10-06T00:35:34.614Z,2.40
2022-10-06T00:38:01.935Z,2.90
2022-10-06T00:43:01.226Z,2.47
2022-10-06T00:45:39.730Z,2.40
2022-10-06T00:48:18.780Z,2.75
2022-10-06T00:50:46.392Z,2.33
2022-10-06T00:53:14.720Z,2.05
2022-10-06T00:55:41.396Z,1.40
2022-10-06T00:58:09.543Z,1.85
2022-10-06T01:00:36.450Z,1.80
2022-10-06T01:03:38.305Z,1.70
2022-10-06T01:06:05.709Z,1.60
2022-10-06T01:08:33.284Z,1.50
2022-10-06T01:11:00.146Z,1.48
2022-10-06T01:13:30.730Z,1.13
2022-10-06T01:16:10.420Z,1.75
2022-10-06T01:18:41.153Z,1.90
2022-10-06T01:21:15.880Z,1.67
2022-10-06T01:23:42.834Z,2.00
2022-10-06T01:26:13.309Z,1.58
2022-10-06T01:28:40.405Z,1.60
2022-10-06T01:31:08.453Z,1.50
2022-10-06T01:33:35.559Z,1.00
2022-10-06T01:38:29.718Z,1.20
2022-10-06T01:41:01.469Z,2.03
2022-10-06T01:43:28.650Z,1.25
2022-10-06T01:45:56.950Z,1.55
2022-10-06T01:48:24.285Z,1.45
2022-10-06T01:50:51.861Z,1.40
2022-10-06T01:53:18.955Z,1.40
2022-10-06T01:55:46.364Z,1.40
2022-10-06T01:58:17.574Z,1.50
2022-10-06T02:00:45.218Z,1.30
2022-10-06T02:03:11.910Z,1.00
2022-10-06T02:05:38.598Z,1.15
2022-10-06T02:08:05.499Z,1.08
2022-10-06T02:10:34.494Z,0.85
2022-10-06T02:13:04.797Z,1.00
2022-10-06T02:15:33.324Z,0.90
2022-10-06T02:18:31.999Z,0.90
2022-10-06T02:21:28.115Z,1.77
2022-10-06T02:23:54.855Z,1.00
2022-10-06T02:26:21.704Z,1.10
2022-10-06T02:28:50.089Z,1.20
2022-10-06T02:31:20.818Z,1.25
2022-10-06T02:33:48.077Z,1.23
2022-10-06T02:36:16.673Z,1.00
2022-10-06T02:38:44.250Z,1.85
